createdAt,value
2022-11-06T00:00:09.250Z,98883.19
2022-11-06T00:02:37.311Z,98882.56
2022-11-06T00:05:19.797Z,98872.00
2022-11-06T00:07:48.335Z,98876.31
2022-11-06T00:10:19.282Z,98878.47
2022-11-06T00:12:48.754Z,98886.41
2022-11-06T00:15:16.927Z,98885.91
2022-11-06T00:17:44.994Z,98883.69
2022-11-06T00:20:15.350Z,98897.03
2022-11-06T00:22:43.573Z,98892.19
2022-11-06T00:25:12.160Z,98892.25
2022-11-06T00:27:42.998Z,98886.78
2022-11-06T00:30:13.577Z,98895.09
2022-11-06T00:32:41.845Z,98886.56
2022-11-06T00:35:10.437Z,98894.38
2022-11-06T00:37:39.069Z,98895.75
2022-11-06T00:40:08.608Z,98891.09
2022-11-06T00:42:36.939Z,98900.94
2022-11-06T00:45:05.916Z,98901.09
2022-11-06T00:47:35.612Z,98905.28
2022-11-06T00:50:03.946Z,98909.13
2022-11-06T00:52:32.518Z,98915.13
2022-11-06T00:55:00.848Z,98913.66
2022-11-06T00:57:29.336Z,98904.06
2022-11-06T00:59:57.669Z,98908.53
2022-11-06T01:02:26.163Z,98904.53
2022-11-06T01:04:55.997Z,98901.88
2022-11-06T01:07:24.497Z,98904.53
2022-11-06T01:09:52.881Z,98906.19
2022-11-06T01:12:23.321Z,98903.72
2022-11-06T01:14:51.765Z,98892.53
2022-11-06T01:17:20.070Z,98891.00
2022-11-06T01:19:48.412Z,98896.88
2022-11-06T01:22:18.766Z,98899.91
2022-11-06T01:24:47.082Z,98905.88
2022-11-06T01:27:30.818Z,98900.19
2022-11-06T01:29:59.091Z,98898.22
2022-11-06T01:32:27.391Z,98899.53
2022-11-06T01:34:55.693Z,98903.19
2022-11-06T01:37:25.291Z,98898.22
2022-11-06T01:39:53.637Z,98897.69
2022-11-06T01:42:22.517Z,98891.84
2022-11-06T01:45:16.106Z,98900.19
2022-11-06T01:47:44.713Z,98899.66
2022-11-06T01:50:14.532Z,98900.69
2022-11-06T01:52:44.496Z,98896.34
2022-11-06T01:55:16.960Z,98898.84
2022-11-06T01:57:45.685Z,98893.69
2022-11-06T02:00:15.387Z,98900.19
2022-11-06T02:02:43.532Z,98901.53
2022-11-06T02:05:11.867Z,98900.72
2022-11-06T02:07:41.158Z,98902.53
2022-11-06T02:10:11.731Z,98899.53
2022-11-06T02:12:46.911Z,98902.53
2022-11-06T02:15:24.347Z,98899.19
2022-11-06T02:18:08.782Z,98896.47
2022-11-06T02:20:39.477Z,98885.44
2022-11-06T02:23:18.665Z,98879.09
2022-11-06T02:25:50.312Z,98875.78
2022-11-06T02:28:23.253Z,98872.66
2022-11-06T02:30:54.021Z,98859.16
2022-11-06T02:33:29.265Z,98851.03
2022-11-06T02:36:02.546Z,98848.03
2022-11-06T02:38:36.113Z,98838.19
2022-11-06T02:41:08.013Z,98839.69
2022-11-06T02:43:40.804Z,98831.84
2022-11-06T02:46:15.331Z,98835.00
2022-11-06T02:48:46.796Z,98825.50
2022-11-06T02:51:19.596Z,98832.34
2022-11-06T02:53:49.803Z,98821.50
2022-11-06T02:56:22.361Z,98814.69
2022-11-06T02:58:55.651Z,98813.19
2022-11-06T03:01:29.668Z,98808.53
2022-11-06T03:04:03.724Z,98801.44
2022-11-06T03:06:36.719Z,98798.34
2022-11-06T03:09:08.780Z,98802.19
2022-11-06T03:11:39.655Z,98804.03
2022-11-06T03:14:14.136Z,98804.16
2022-11-06T03:16:53.590Z,98810.88
2022-11-06T03:19:28.880Z,98801.88
2022-11-06T03:22:05.080Z,98811.69
2022-11-06T03:24:39.441Z,98813.44
2022-11-06T03:27:15.402Z,98805.06
2022-11-06T03:29:48.663Z,98802.78
2022-11-06T03:32:21.593Z,98793.84
2022-11-06T03:34:56.274Z,98800.53
2022-11-06T03:37:29.336Z,98793.03
2022-11-06T03:40:02.163Z,98783.38
2022-11-06T03:42:31.916Z,98786.84
2022-11-06T03:45:08.482Z,98783.69
2022-11-06T03:47:41.783Z,98786.53
2022-11-06T03:50:16.498Z,98803.03
2022-11-06T03:52:50.750Z,98799.16
2022-11-06T03:55:23.000Z,98796.50
2022-11-06T03:57:55.170Z,98804.50
2022-11-06T04:00:25.061Z,98793.00
2022-11-06T04:03:04.879Z,98803.72
2022-11-06T04:05:38.129Z,98808.00
2022-11-06T04:08:23.480Z,98801.41
2022-11-06T04:11:11.115Z,98801.50
2022-11-06T04:13:58.855Z,98805.31
2022-11-06T04:16:29.012Z,98815.31
2022-11-06T04:18:57.096Z,98827.69
2022-11-06T04:21:30.531Z,98830.63
2022-11-06T04:24:26.902Z,98822.72
2022-11-06T04:27:02.135Z,98816.44
2022-11-06T04:29:38.693Z,98802.59
2022-11-06T04:32:12.301Z,98799.91
2022-11-06T04:34:44.680Z,98799.31
2022-11-06T04:37:15.633Z,98794.44
2022-11-06T04:39:51.206Z,98789.44
2022-11-06T04:42:26.633Z,98789.22
2022-11-06T04:44:58.198Z,98781.25
2022-11-06T04:47:27.684Z,98770.66
2022-11-06T04:49:57.992Z,98765.78
2022-11-06T04:52:27.558Z,98761.72
2022-11-06T04:54:56.790Z,98770.63
2022-11-06T04:57:25.389Z,98779.84
2022-11-06T04:59:53.905Z,98791.34
2022-11-06T05:02:22.102Z,98790.34
2022-11-06T05:04:51.618Z,98785.16
2022-11-06T05:07:19.634Z,98806.34
2022-11-06T05:09:47.625Z,98805.97
2022-11-06T05:12:15.761Z,98797.16
2022-11-06T05:14:43.769Z,98796.09
2022-11-06T05:17:11.734Z,98809.31
2022-11-06T05:19:39.775Z,98810.16
2022-11-06T05:22:27.475Z,98798.41
2022-11-06T05:24:57.844Z,98804.56
2022-11-06T05:27:25.849Z,98797.03
2022-11-06T05:29:53.871Z,98799.69
2022-11-06T05:32:22.258Z,98794.06
2022-11-06T05:34:50.250Z,98797.44
2022-11-06T05:37:19.627Z,98792.13
2022-11-06T05:39:47.727Z,98791.53
2022-11-06T05:42:15.773Z,98801.78
2022-11-06T05:44:43.821Z,98795.41
2022-11-06T05:47:11.856Z,98793.91
2022-11-06T05:49:39.842Z,98793.63
2022-11-06T05:52:07.906Z,98817.66
2022-11-06T05:54:37.387Z,98854.66
2022-11-06T05:57:05.556Z,98853.81
2022-11-06T05:59:33.571Z,98845.59
2022-11-06T06:02:01.680Z,98850.22
2022-11-06T06:04:29.816Z,98839.31
2022-11-06T06:06:57.909Z,98821.00
2022-11-06T06:09:25.933Z,98817.06
2022-11-06T06:11:55.352Z,98823.22
2022-11-06T06:14:23.733Z,98815.22
2022-11-06T06:16:51.689Z,98808.41
2022-11-06T06:19:19.942Z,98809.44
2022-11-06T06:21:48.073Z,98805.28
2022-11-06T06:24:16.224Z,98795.66
2022-11-06T06:26:44.283Z,98787.84
2022-11-06T06:29:13.717Z,98780.66
2022-11-06T06:31:41.768Z,98778.34
2022-11-06T06:34:09.785Z,98773.47
2022-11-06T06:36:37.750Z,98776.19
2022-11-06T06:39:05.699Z,98780.75
2022-11-06T06:41:34.021Z,98768.94
2022-11-06T06:44:02.057Z,98768.28
2022-11-06T06:46:31.646Z,98760.00
2022-11-06T06:48:59.679Z,98759.69
2022-11-06T06:51:27.637Z,98771.63
2022-11-06T06:53:58.067Z,98765.44
2022-11-06T06:56:26.060Z,98760.44
2022-11-06T06:58:54.590Z,98757.13
2022-11-06T07:01:23.042Z,98776.69
2022-11-06T07:03:52.397Z,98775.88
2022-11-06T07:06:20.777Z,98767.75
2022-11-06T07:08:50.921Z,98755.22
2022-11-06T07:11:19.201Z,98743.28
2022-11-06T07:13:47.213Z,98747.06
2022-11-06T07:16:15.180Z,98740.84
2022-11-06T07:18:43.363Z,98721.56
2022-11-06T07:21:13.312Z,98714.75
2022-11-06T07:23:41.625Z,98704.03
2022-11-06T07:26:09.779Z,98698.66
2022-11-06T07:28:37.865Z,98691.03
2022-11-06T07:31:06.747Z,98686.41
2022-11-06T07:33:35.019Z,98673.31
2022-11-06T07:36:04.082Z,98657.03
2022-11-06T07:38:35.503Z,98658.38
2022-11-06T07:41:04.593Z,98652.34
2022-11-06T07:43:32.935Z,98650.91
2022-11-06T07:46:01.867Z,98635.66
2022-11-06T07:48:30.467Z,98627.19
2022-11-06T07:50:58.703Z,98628.66
2022-11-06T07:53:27.106Z,98611.16
2022-11-06T07:55:57.011Z,98614.66
2022-11-06T07:58:25.605Z,98611.84
2022-11-06T08:00:55.349Z,98606.94
2022-11-06T08:03:23.986Z,98595.16
2022-11-06T08:05:52.011Z,98598.63
2022-11-06T08:08:19.985Z,98600.38
2022-11-06T08:10:48.013Z,98600.06
2022-11-06T08:13:19.712Z,98608.13
2022-11-06T08:15:47.918Z,98609.78
2022-11-06T08:18:16.352Z,98608.91
2022-11-06T08:20:44.630Z,98611.00
2022-11-06T08:23:13.864Z,98608.44
2022-11-06T08:25:42.045Z,98608.22
2022-11-06T08:28:10.230Z,98601.97
2022-11-06T08:30:39.784Z,98601.19
2022-11-06T08:33:09.198Z,98599.16
2022-11-06T08:35:37.735Z,98592.59
2022-11-06T08:38:05.774Z,98593.06
2022-11-06T08:40:33.869Z,98579.00
2022-11-06T08:43:02.069Z,98563.50
2022-11-06T08:45:30.570Z,98558.13
2022-11-06T08:48:03.244Z,98554.34
2022-11-06T08:50:34.126Z,98553.34
2022-11-06T08:53:04.054Z,98546.13
2022-11-06T08:55:32.310Z,98543.28
2022-11-06T08:58:00.441Z,98544.91
2022-11-06T09:00:29.502Z,98544.50
2022-11-06T09:03:00.863Z,98560.94
2022-11-06T09:05:30.937Z,98580.13
2022-11-06T09:07:59.205Z,98600.66
2022-11-06T09:10:27.978Z,98610.34
2022-11-06T09:12:58.767Z,98609.00
2022-11-06T09:15:26.940Z,98621.44
2022-11-06T09:17:55.626Z,98610.75
2022-11-06T09:20:24.667Z,98611.59
2022-11-06T09:22:54.222Z,98606.63
2022-11-06T09:25:22.507Z,98601.09
2022-11-06T09:27:55.870Z,98594.78
2022-11-06T09:30:27.224Z,98585.34
2022-11-06T09:32:56.024Z,98572.50
2022-11-06T09:35:25.098Z,98557.72
2022-11-06T09:37:54.481Z,98549.56
2022-11-06T09:40:26.489Z,98546.19
2022-11-06T09:43:02.025Z,98515.63
2022-11-06T09:45:31.931Z,98502.41
2022-11-06T09:48:04.320Z,98498.88
2022-11-06T09:50:35.164Z,98484.41
2022-11-06T09:53:07.500Z,98479.25
2022-11-06T09:55:39.025Z,98475.41
2022-11-06T09:58:12.856Z,98469.28
2022-11-06T10:00:41.213Z,98472.13
2022-11-06T10:03:16.887Z,98477.56
2022-11-06T10:05:46.426Z,98481.19
2022-11-06T10:08:18.662Z,98491.41
2022-11-06T10:10:51.106Z,98472.75
2022-11-06T10:13:25.090Z,98450.97
2022-11-06T10:15:57.699Z,98427.50
2022-11-06T10:18:32.033Z,98418.09
2022-11-06T10:21:07.283Z,98407.50
2022-11-06T10:23:41.712Z,98398.84
2022-11-06T10:26:14.469Z,98405.56
2022-11-06T10:28:52.440Z,98399.94
2022-11-06T10:31:27.209Z,98393.75
2022-11-06T10:33:58.938Z,98389.59
2022-11-06T10:36:30.745Z,98382.97
2022-11-06T10:39:00.761Z,98376.81
2022-11-06T10:41:31.692Z,98367.56
2022-11-06T10:44:02.921Z,98362.72
2022-11-06T10:46:34.793Z,98350.13
2022-11-06T10:49:03.993Z,98344.56
2022-11-06T10:51:41.860Z,98337.56
2022-11-06T10:54:20.815Z,98325.19
2022-11-06T10:56:56.279Z,98316.06
2022-11-06T10:59:24.604Z,98304.31
2022-11-06T11:01:52.899Z,98313.09
2022-11-06T11:04:21.070Z,98306.84
2022-11-06T11:06:49.055Z,98302.00
2022-11-06T11:09:29.876Z,98295.97
2022-11-06T11:11:58.036Z,98291.78
2022-11-06T11:14:26.747Z,98281.34
2022-11-06T11:16:55.804Z,98278.13
2022-11-06T11:19:25.942Z,98269.72
2022-11-06T11:21:54.736Z,98260.13
2022-11-06T11:24:22.697Z,98241.88
2022-11-06T11:26:53.238Z,98238.53
2022-11-06T11:29:24.351Z,98241.13
2022-11-06T11:31:56.600Z,98233.88
2022-11-06T11:34:25.799Z,98228.97
2022-11-06T11:36:58.831Z,98226.31
2022-11-06T11:39:29.104Z,98222.72
2022-11-06T11:42:16.717Z,98215.19
2022-11-06T11:44:44.736Z,98205.19
2022-11-06T11:47:21.542Z,98198.88
2022-11-06T11:49:49.945Z,98197.13
2022-11-06T11:52:20.322Z,98192.41
2022-11-06T11:54:49.469Z,98188.75
2022-11-06T11:57:22.284Z,98191.47
2022-11-06T11:59:52.731Z,98192.66
2022-11-06T12:02:27.650Z,98184.19
2022-11-06T12:04:58.905Z,98183.59
2022-11-06T12:07:28.175Z,98170.53
2022-11-06T12:09:56.440Z,98164.31
2022-11-06T12:12:29.156Z,98151.81
2022-11-06T12:15:08.003Z,98146.53
2022-11-06T12:17:38.838Z,98147.88
2022-11-06T12:20:12.255Z,98149.16
2022-11-06T12:22:42.898Z,98148.72
2022-11-06T12:25:12.161Z,98147.75
2022-11-06T12:27:45.143Z,98144.34
2022-11-06T12:30:17.538Z,98152.06
2022-11-06T12:32:55.613Z,98135.47
2022-11-06T12:35:28.989Z,98137.78
2022-11-06T12:38:05.686Z,98139.06
2022-11-06T12:40:39.007Z,98125.78
2022-11-06T12:43:17.762Z,98132.38
2022-11-06T12:46:01.600Z,98128.13
2022-11-06T12:48:54.188Z,98116.88
2022-11-06T12:51:30.578Z,98116.44
2022-11-06T12:54:12.006Z,98102.50
2022-11-06T12:56:49.376Z,98102.34
2022-11-06T12:59:31.745Z,98101.97
2022-11-06T13:02:19.053Z,98104.72
2022-11-06T13:04:56.316Z,98099.16
2022-11-06T13:07:49.649Z,98089.91
2022-11-06T13:10:30.394Z,98085.63
2022-11-06T13:13:15.345Z,98086.88
2022-11-06T13:15:54.786Z,98085.22
2022-11-06T13:18:29.239Z,98077.75
2022-11-06T13:21:04.065Z,98071.75
2022-11-06T13:23:36.280Z,98071.28
2022-11-06T13:26:10.740Z,98049.66
2022-11-06T13:28:44.671Z,98074.59
2022-11-06T13:31:18.597Z,98062.38
2022-11-06T13:33:49.956Z,98068.75
2022-11-06T13:36:19.972Z,98072.81
2022-11-06T13:38:52.513Z,98056.59
2022-11-06T13:41:24.764Z,98067.34
2022-11-06T13:43:59.728Z,98059.81
2022-11-06T13:46:38.391Z,98055.06
2022-11-06T13:49:15.494Z,98057.38
2022-11-06T13:51:51.711Z,98048.91
2022-11-06T13:54:29.481Z,98053.59
2022-11-06T13:57:33.105Z,98036.31
2022-11-06T14:00:16.793Z,98050.47
2022-11-06T14:03:26.703Z,98048.84
2022-11-06T14:05:58.742Z,98059.06
2022-11-06T14:08:31.497Z,98044.16
2022-11-06T14:11:03.179Z,98044.91
2022-11-06T14:13:36.091Z,98048.50
2022-11-06T14:16:25.166Z,98061.59
2022-11-06T14:19:01.404Z,98056.13
2022-11-06T14:21:52.044Z,98061.56
2022-11-06T14:24:38.938Z,98058.47
2022-11-06T14:27:34.098Z,98050.19
2022-11-06T14:30:05.171Z,98037.69
2022-11-06T14:32:36.999Z,98037.03
2022-11-06T14:35:49.462Z,98043.72
2022-11-06T14:38:38.786Z,98036.66
2022-11-06T14:41:50.061Z,98028.09
2022-11-06T14:44:49.270Z,98013.66
2022-11-06T14:47:41.651Z,98021.66
2022-11-06T14:50:26.403Z,98021.44
2022-11-06T14:53:01.256Z,98023.28
2022-11-06T14:55:33.009Z,98017.56
2022-11-06T14:58:15.058Z,98010.38
2022-11-06T15:00:52.979Z,98021.06
2022-11-06T15:03:25.894Z,98022.81
2022-11-06T15:06:00.254Z,98010.63
2022-11-06T15:09:00.256Z,98013.31
2022-11-06T15:11:59.958Z,98013.22
2022-11-06T15:15:03.644Z,98011.09
2022-11-06T15:17:36.544Z,97999.31
2022-11-06T15:20:24.490Z,98001.59
2022-11-06T15:23:12.848Z,98005.91
2022-11-06T15:25:48.330Z,98012.81
2022-11-06T15:28:19.573Z,98012.00
2022-11-06T15:30:49.277Z,98022.00
2022-11-06T15:33:20.190Z,98021.63
2022-11-06T15:35:49.569Z,98028.09
2022-11-06T15:38:20.894Z,98044.47
2022-11-06T15:40:52.112Z,98043.03
2022-11-06T15:43:26.094Z,98043.75
2022-11-06T15:46:11.732Z,98042.34
2022-11-06T15:48:39.733Z,98027.69
2022-11-06T15:51:21.059Z,98040.13
2022-11-06T15:53:49.038Z,98036.28
2022-11-06T15:56:19.692Z,98030.31
2022-11-06T15:58:47.747Z,98035.00
2022-11-06T16:01:26.207Z,98020.47
2022-11-06T16:03:55.725Z,98018.59
2022-11-06T16:06:23.875Z,98009.00
2022-11-06T16:08:52.187Z,98021.94
2022-11-06T16:11:21.869Z,98022.13
2022-11-06T16:13:50.318Z,98017.03
2022-11-06T16:16:33.450Z,98004.84
2022-11-06T16:19:04.210Z,98005.81
2022-11-06T16:21:34.809Z,98000.00
2022-11-06T16:24:05.400Z,98015.38
2022-11-06T16:26:39.398Z,98018.97
2022-11-06T16:29:12.363Z,98015.53
2022-11-06T16:31:41.045Z,98024.81
2022-11-06T16:34:22.885Z,98014.69
2022-11-06T16:36:52.569Z,98018.50
2022-11-06T16:39:48.925Z,98017.44
2022-11-06T16:42:30.177Z,98018.13
2022-11-06T16:45:01.921Z,98009.97
2022-11-06T16:47:29.968Z,98005.31
2022-11-06T16:49:58.571Z,97997.41
2022-11-06T16:52:28.047Z,98006.63
2022-11-06T16:54:58.197Z,98002.22
2022-11-06T16:57:27.878Z,98010.59
2022-11-06T17:00:06.294Z,98013.13
2022-11-06T17:02:36.657Z,98016.16
2022-11-06T17:05:09.089Z,98008.66
2022-11-06T17:07:37.092Z,98011.34
2022-11-06T17:10:24.591Z,98008.66
2022-11-06T17:12:52.672Z,98014.69
2022-11-06T17:15:22.126Z,98019.97
2022-11-06T17:17:50.740Z,98030.56
2022-11-06T17:20:19.962Z,98029.28
2022-11-06T17:22:49.920Z,98035.25
2022-11-06T17:25:17.966Z,98023.16
2022-11-06T17:27:45.956Z,98034.56
2022-11-06T17:30:14.595Z,98034.31
2022-11-06T17:32:43.938Z,98016.75
2022-11-06T17:35:11.999Z,98027.94
2022-11-06T17:37:39.933Z,98050.69
2022-11-06T17:40:08.424Z,98052.78
2022-11-06T17:42:38.505Z,98047.44
2022-11-06T17:45:06.808Z,98048.25
2022-11-06T17:47:34.751Z,98045.59
2022-11-06T17:50:04.380Z,98028.72
2022-11-06T17:52:32.389Z,98027.69
2022-11-06T17:55:00.417Z,98029.28
2022-11-06T17:57:28.604Z,98050.72
2022-11-06T17:59:56.589Z,98065.44
2022-11-06T18:02:47.509Z,98069.59
2022-11-06T18:05:14.066Z,98070.06
2022-11-06T18:07:42.046Z,98077.25
2022-11-06T18:10:10.588Z,98063.09
2022-11-06T18:12:38.570Z,98082.91
2022-11-06T18:15:09.094Z,98071.63
2022-11-06T18:17:37.105Z,98084.19
2022-11-06T18:20:05.618Z,98084.28
2022-11-06T18:22:34.933Z,98090.34
2022-11-06T18:25:02.943Z,98091.09
2022-11-06T18:27:30.932Z,98083.00
2022-11-06T18:29:58.957Z,98071.59
2022-11-06T18:32:26.930Z,98061.78
2022-11-06T18:34:54.956Z,98071.06
2022-11-06T18:37:25.532Z,98071.72
2022-11-06T18:39:54.861Z,98077.03
2022-11-06T18:42:22.863Z,98085.84
2022-11-06T18:44:50.859Z,98090.03
2022-11-06T18:47:18.840Z,98087.50
2022-11-06T18:49:46.965Z,98087.84
2022-11-06T18:52:23.530Z,98077.66
2022-11-06T18:55:02.125Z,98085.69
2022-11-06T18:57:32.575Z,98058.06
2022-11-06T19:00:00.615Z,98077.41
2022-11-06T19:02:29.047Z,98080.41
2022-11-06T19:04:57.494Z,98087.09
2022-11-06T19:07:25.543Z,98095.50
2022-11-06T19:09:53.508Z,98088.63
2022-11-06T19:12:23.032Z,98105.72
2022-11-06T19:14:51.598Z,98115.69
2022-11-06T19:17:19.672Z,98127.00
2022-11-06T19:19:47.700Z,98123.09
2022-11-06T19:22:15.681Z,98135.69
2022-11-06T19:24:43.755Z,98131.88
2022-11-06T19:27:14.095Z,98131.66
2022-11-06T19:29:43.450Z,98141.03
2022-11-06T19:32:11.418Z,98137.50
2022-11-06T19:34:39.543Z,98144.34
2022-11-06T19:37:07.574Z,98155.50
2022-11-06T19:39:37.946Z,98164.84
2022-11-06T19:42:06.098Z,98162.31
2022-11-06T19:44:34.125Z,98160.00
2022-11-06T19:47:03.482Z,98173.91
2022-11-06T19:49:31.475Z,98161.09
2022-11-06T19:52:41.316Z,98165.22
2022-11-06T19:54:47.415Z,98166.47
2022-11-06T19:57:29.489Z,98170.50
2022-11-06T19:59:58.171Z,98162.16
2022-11-06T20:02:29.997Z,98153.09
2022-11-06T20:04:58.151Z,98148.78
2022-11-06T20:07:26.455Z,98143.56
2022-11-06T20:09:54.479Z,98151.38
2022-11-06T20:12:23.547Z,98149.66
2022-11-06T20:14:53.740Z,98147.03
2022-11-06T20:17:21.761Z,98151.19
2022-11-06T20:19:53.538Z,98157.63
2022-11-06T20:22:21.566Z,98163.63
2022-11-06T20:24:49.682Z,98164.25
2022-11-06T20:27:20.256Z,98169.59
2022-11-06T20:29:48.248Z,98168.06
2022-11-06T20:32:19.046Z,98170.78
2022-11-06T20:34:48.096Z,98176.97
2022-11-06T20:37:20.104Z,98171.75
2022-11-06T20:39:49.867Z,98173.84
2022-11-06T20:42:18.358Z,98167.94
2022-11-06T20:44:48.403Z,98160.81
2022-11-06T20:47:16.868Z,98164.25
2022-11-06T20:49:44.849Z,98167.91
2022-11-06T20:52:15.564Z,98157.31
2022-11-06T20:54:47.540Z,98162.31
2022-11-06T20:57:16.058Z,98156.25
2022-11-06T20:59:44.277Z,98150.38
2022-11-06T21:02:12.668Z,98150.09
2022-11-06T21:04:40.795Z,98151.75
2022-11-06T21:07:11.022Z,98150.91
2022-11-06T21:09:39.024Z,98158.00
2022-11-06T21:12:08.703Z,98172.78
2022-11-06T21:14:36.717Z,98177.47
2022-11-06T21:17:04.806Z,98191.56
2022-11-06T21:19:33.114Z,98190.28
2022-11-06T21:22:01.421Z,98191.66
2022-11-06T21:24:29.408Z,98195.56
2022-11-06T21:26:57.399Z,98194.66
2022-11-06T21:29:26.784Z,98177.50
2022-11-06T21:31:54.935Z,98175.94
2022-11-06T21:34:22.974Z,98167.56
2022-11-06T21:36:50.959Z,98157.94
2022-11-06T21:39:19.902Z,98146.97
2022-11-06T21:41:48.072Z,98148.00
2022-11-06T21:44:17.287Z,98147.50
2022-11-06T21:46:47.140Z,98167.19
2022-11-06T21:49:15.717Z,98164.22
2022-11-06T21:51:43.852Z,98169.81
2022-11-06T21:54:31.739Z,98181.84
2022-11-06T21:57:00.023Z,98193.13
2022-11-06T22:02:38.051Z,98203.75
2022-11-06T22:05:06.886Z,98216.84
2022-11-06T22:07:34.878Z,98228.78
2022-11-06T22:10:03.020Z,98225.47
2022-11-06T22:12:31.029Z,98229.22
2022-11-06T22:14:59.047Z,98237.84
2022-11-06T22:17:27.202Z,98252.13
2022-11-06T22:19:56.646Z,98264.84
2022-11-06T22:22:24.996Z,98254.50
2022-11-06T22:24:53.282Z,98271.34
2022-11-06T22:27:21.272Z,98270.91
2022-11-06T22:29:51.589Z,98278.94
2022-11-06T22:32:19.613Z,98282.97
2022-11-06T22:34:47.628Z,98275.59
2022-11-06T22:37:17.161Z,98282.56
2022-11-06T22:39:45.149Z,98285.44
2022-11-06T22:42:13.209Z,98274.47
2022-11-06T22:44:41.298Z,98289.63
2022-11-06T22:47:09.721Z,98286.97
2022-11-06T22:49:39.964Z,98283.81
2022-11-06T22:52:07.952Z,98288.25
2022-11-06T22:54:37.287Z,98292.22
2022-11-06T22:57:05.263Z,98297.66
2022-11-06T22:59:33.213Z,98303.72
2022-11-06T23:02:01.253Z,98300.34
2022-11-06T23:04:32.318Z,98306.31
2022-11-06T23:07:00.321Z,98305.09
2022-11-06T23:09:28.315Z,98281.53
2022-11-06T23:11:57.621Z,98304.22
2022-11-06T23:14:25.636Z,98306.31
2022-11-06T23:17:00.632Z,98302.28
2022-11-06T23:19:30.007Z,98309.72
2022-11-06T23:22:11.948Z,98298.94
2022-11-06T23:24:40.007Z,98308.78
2022-11-06T23:27:09.541Z,98313.13
2022-11-06T23:29:37.533Z,98304.16
2022-11-06T23:32:05.893Z,98306.41
2022-11-06T23:34:33.951Z,98312.69
2022-11-06T23:37:01.933Z,98306.19
2022-11-06T23:39:29.941Z,98298.44
2022-11-06T23:41:57.930Z,98299.72
2022-11-06T23:44:44.853Z,98306.41
2022-11-06T23:47:12.823Z,98302.75
2022-11-06T23:49:40.855Z,98300.03
2022-11-06T23:52:08.837Z,98306.75
2022-11-06T23:54:36.794Z,98308.44
2022-11-06T23:57:04.838Z,98302.31
2022-11-06T23:59:34.164Z,98299.84
